sensor_id;sensor_type;location;lat;lon;timestamp;P1;durP1;ratioP1;P2;durP2;ratioP2
72085;SDS011;64750;52.134;5.424;2023-04-06T00:02:18;14.10;;;8.10;;
72085;SDS011;64750;52.134;5.424;2023-04-06T00:04:45;15.27;;;7.30;;
72085;SDS011;64750;52.134;5.424;2023-04-06T00:07:11;9.60;;;7.43;;
72085;SDS011;64750;52.134;5.424;2023-04-06T00:09:38;7.82;;;6.55;;
72085;SDS011;64750;52.134;5.424;2023-04-06T00:12:04;9.20;;;7.13;;
72085;SDS011;64750;52.134;5.424;2023-04-06T00:14:31;10.10;;;7.00;;
72085;SDS011;64750;52.134;5.424;2023-04-06T00:16:58;10.23;;;7.05;;
72085;SDS011;64750;52.134;5.424;2023-04-06T00:19:24;7.72;;;6.90;;
72085;SDS011;64750;52.134;5.424;2023-04-06T00:21:51;8.43;;;6.55;;
72085;SDS011;64750;52.134;5.424;2023-04-06T00:24:17;7.23;;;6.53;;
72085;SDS011;64750;52.134;5.424;2023-04-06T00:26:44;7.95;;;6.43;;
72085;SDS011;64750;52.134;5.424;2023-04-06T00:29:10;7.15;;;6.25;;
72085;SDS011;64750;52.134;5.424;2023-04-06T00:31:36;7.80;;;6.90;;
72085;SDS011;64750;52.134;5.424;2023-04-06T00:34:03;7.93;;;7.10;;
72085;SDS011;64750;52.134;5.424;2023-04-06T00:36:29;8.13;;;7.43;;
72085;SDS011;64750;52.134;5.424;2023-04-06T00:38:56;10.23;;;6.60;;
72085;SDS011;64750;52.134;5.424;2023-04-06T00:41:22;8.90;;;6.80;;
72085;SDS011;64750;52.134;5.424;2023-04-06T00:43:49;8.02;;;6.53;;
72085;SDS011;64750;52.134;5.424;2023-04-06T00:46:15;7.97;;;6.65;;
72085;SDS011;64750;52.134;5.424;2023-04-06T00:48:41;7.90;;;7.10;;
72085;SDS011;64750;52.134;5.424;2023-04-06T00:51:08;10.60;;;6.78;;
72085;SDS011;64750;52.134;5.424;2023-04-06T00:53:34;9.40;;;6.85;;
72085;SDS011;64750;52.134;5.424;2023-04-06T00:56:01;11.75;;;7.05;;
72085;SDS011;64750;52.134;5.424;2023-04-06T00:58:27;7.90;;;7.18;;
72085;SDS011;64750;52.134;5.424;2023-04-06T01:00:54;11.70;;;7.27;;
72085;SDS011;64750;52.134;5.424;2023-04-06T01:06:00;8.65;;;7.05;;
72085;SDS011;64750;52.134;5.424;2023-04-06T01:08:27;9.00;;;7.63;;
72085;SDS011;64750;52.134;5.424;2023-04-06T01:10:53;11.43;;;8.13;;
72085;SDS011;64750;52.134;5.424;2023-04-06T01:13:20;12.67;;;6.97;;
72085;SDS011;64750;52.134;5.424;2023-04-06T01:15:47;10.13;;;6.75;;
72085;SDS011;64750;52.134;5.424;2023-04-06T01:18:14;11.85;;;7.68;;
72085;SDS011;64750;52.134;5.424;2023-04-06T01:20:40;8.02;;;7.13;;
72085;SDS011;64750;52.134;5.424;2023-04-06T01:23:07;8.13;;;7.32;;
72085;SDS011;64750;52.134;5.424;2023-04-06T01:25:34;10.17;;;6.93;;
72085;SDS011;64750;52.134;5.424;2023-04-06T01:28:00;9.95;;;7.03;;
72085;SDS011;64750;52.134;5.424;2023-04-06T01:30:27;14.32;;;8.02;;
72085;SDS011;64750;52.134;5.424;2023-04-06T01:32:53;10.68;;;7.40;;
72085;SDS011;64750;52.134;5.424;2023-04-06T01:35:19;8.30;;;7.40;;
72085;SDS011;64750;52.134;5.424;2023-04-06T01:37:46;12.63;;;7.13;;
72085;SDS011;64750;52.134;5.424;2023-04-06T01:40:13;8.80;;;7.22;;
72085;SDS011;64750;52.134;5.424;2023-04-06T01:42:39;10.15;;;8.30;;
72085;SDS011;64750;52.134;5.424;2023-04-06T01:45:06;10.23;;;7.38;;
72085;SDS011;64750;52.134;5.424;2023-04-06T01:47:33;8.13;;;7.28;;
72085;SDS011;64750;52.134;5.424;2023-04-06T01:49:59;10.47;;;7.90;;
72085;SDS011;64750;52.134;5.424;2023-04-06T01:52:26;12.15;;;7.75;;
72085;SDS011;64750;52.134;5.424;2023-04-06T01:54:52;12.73;;;8.48;;
72085;SDS011;64750;52.134;5.424;2023-04-06T01:57:19;9.32;;;7.97;;
72085;SDS011;64750;52.134;5.424;2023-04-06T01:59:46;10.15;;;8.15;;
72085;SDS011;64750;52.134;5.424;2023-04-06T02:02:12;8.73;;;7.37;;
72085;SDS011;64750;52.134;5.424;2023-04-06T02:04:39;10.10;;;8.43;;
72085;SDS011;64750;52.134;5.424;2023-04-06T02:07:05;9.90;;;7.97;;
72085;SDS011;64750;52.134;5.424;2023-04-06T02:09:32;11.75;;;7.82;;
72085;SDS011;64750;52.134;5.424;2023-04-06T02:11:58;12.32;;;8.45;;
72085;SDS011;64750;52.134;5.424;2023-04-06T02:14:25;9.80;;;8.80;;
72085;SDS011;64750;52.134;5.424;2023-04-06T02:16:51;10.05;;;7.85;;
72085;SDS011;64750;52.134;5.424;2023-04-06T02:19:18;9.18;;;8.20;;
72085;SDS011;64750;52.134;5.424;2023-04-06T02:21:45;15.52;;;9.25;;
72085;SDS011;64750;52.134;5.424;2023-04-06T02:24:11;10.75;;;8.45;;
72085;SDS011;64750;52.134;5.424;2023-04-06T02:26:37;11.03;;;8.53;;
72085;SDS011;64750;52.134;5.424;2023-04-06T02:29:04;10.07;;;8.10;;
72085;SDS011;64750;52.134;5.424;2023-04-06T02:31:32;9.20;;;8.30;;
72085;SDS011;64750;52.134;5.424;2023-04-06T02:33:58;11.55;;;8.45;;
72085;SDS011;64750;52.134;5.424;2023-04-06T02:36:25;12.20;;;8.38;;
72085;SDS011;64750;52.134;5.424;2023-04-06T02:38:52;9.27;;;7.80;;
72085;SDS011;64750;52.134;5.424;2023-04-06T02:41:18;12.35;;;8.57;;
72085;SDS011;64750;52.134;5.424;2023-04-06T02:43:44;9.30;;;8.02;;
72085;SDS011;64750;52.134;5.424;2023-04-06T02:46:11;13.60;;;8.38;;
72085;SDS011;64750;52.134;5.424;2023-04-06T02:48:37;9.85;;;8.75;;
72085;SDS011;64750;52.134;5.424;2023-04-06T02:51:03;8.93;;;8.13;;
72085;SDS011;64750;52.134;5.424;2023-04-06T02:53:30;13.00;;;9.30;;
72085;SDS011;64750;52.134;5.424;2023-04-06T02:55:56;9.23;;;8.13;;
72085;SDS011;64750;52.134;5.424;2023-04-06T02:58:23;9.45;;;8.07;;
72085;SDS011;64750;52.134;5.424;2023-04-06T03:00:49;9.45;;;8.43;;
72085;SDS011;64750;52.134;5.424;2023-04-06T03:03:16;9.57;;;8.07;;
72085;SDS011;64750;52.134;5.424;2023-04-06T03:05:42;12.63;;;8.95;;
72085;SDS011;64750;52.134;5.424;2023-04-06T03:08:09;11.90;;;7.57;;
72085;SDS011;64750;52.134;5.424;2023-04-06T03:10:35;8.38;;;7.57;;
72085;SDS011;64750;52.134;5.424;2023-04-06T03:13:02;9.27;;;8.30;;
72085;SDS011;64750;52.134;5.424;2023-04-06T03:15:28;12.83;;;7.77;;
72085;SDS011;64750;52.134;5.424;2023-04-06T03:17:54;11.98;;;7.53;;
72085;SDS011;64750;52.134;5.424;2023-04-06T03:20:24;9.20;;;7.65;;
72085;SDS011;64750;52.134;5.424;2023-04-06T03:22:50;8.45;;;7.10;;
72085;SDS011;64750;52.134;5.424;2023-04-06T03:25:16;13.45;;;7.60;;
72085;SDS011;64750;52.134;5.424;2023-04-06T03:27:43;8.33;;;6.40;;
72085;SDS011;64750;52.134;5.424;2023-04-06T03:30:09;12.75;;;6.93;;
72085;SDS011;64750;52.134;5.424;2023-04-06T03:32:36;13.38;;;7.50;;
72085;SDS011;64750;52.134;5.424;2023-04-06T03:35:02;7.10;;;6.35;;
72085;SDS011;64750;52.134;5.424;2023-04-06T03:37:29;8.38;;;6.78;;
72085;SDS011;64750;52.134;5.424;2023-04-06T03:39:56;14.83;;;7.53;;
72085;SDS011;64750;52.134;5.424;2023-04-06T03:42:22;8.73;;;7.18;;
72085;SDS011;64750;52.134;5.424;2023-04-06T03:44:49;7.70;;;6.72;;
72085;SDS011;64750;52.134;5.424;2023-04-06T03:47:15;11.48;;;6.38;;
72085;SDS011;64750;52.134;5.424;2023-04-06T03:49:41;8.93;;;5.97;;
72085;SDS011;64750;52.134;5.424;2023-04-06T03:52:08;7.10;;;6.40;;
72085;SDS011;64750;52.134;5.424;2023-04-06T03:54:34;8.45;;;7.30;;
72085;SDS011;64750;52.134;5.424;2023-04-06T03:57:01;12.43;;;6.70;;
72085;SDS011;64750;52.134;5.424;2023-04-06T03:59:27;8.70;;;5.93;;
72085;SDS011;64750;52.134;5.424;2023-04-06T04:01:54;8.52;;;6.38;;
72085;SDS011;64750;52.134;5.424;2023-04-06T04:04:20;7.93;;;7.03;;
72085;SDS011;64750;52.134;5.424;2023-04-06T04:06:47;7.45;;;6.43;;
72085;SDS011;64750;52.134;5.424;2023-04-06T04:09:13;10.32;;;6.57;;
72085;SDS011;64750;52.134;5.424;2023-04-06T04:11:40;7.80;;;6.63;;
72085;SDS011;64750;52.134;5.424;2023-04-06T04:14:06;8.23;;;6.60;;
72085;SDS011;64750;52.134;5.424;2023-04-06T04:16:33;8.40;;;6.97;;
72085;SDS011;64750;52.134;5.424;2023-04-06T04:18:59;11.85;;;7.10;;
72085;SDS011;64750;52.134;5.424;2023-04-06T04:21:27;8.23;;;7.03;;
72085;SDS011;64750;52.134;5.424;2023-04-06T04:23:56;7.13;;;6.43;;
72085;SDS011;64750;52.134;5.424;2023-04-06T04:26:22;7.65;;;6.85;;
72085;SDS011;64750;52.134;5.424;2023-04-06T04:28:49;11.87;;;7.23;;
72085;SDS011;64750;52.134;5.424;2023-04-06T04:31:15;8.80;;;7.22;;
72085;SDS011;64750;52.134;5.424;2023-04-06T04:33:44;9.20;;;6.90;;
72085;SDS011;64750;52.134;5.424;2023-04-06T04:36:10;8.57;;;7.38;;
72085;SDS011;64750;52.134;5.424;2023-04-06T04:38:37;7.72;;;6.95;;
72085;SDS011;64750;52.134;5.424;2023-04-06T04:41:04;7.97;;;7.17;;
72085;SDS011;64750;52.134;5.424;2023-04-06T04:43:30;9.18;;;7.30;;
72085;SDS011;64750;52.134;5.424;2023-04-06T04:45:58;7.82;;;7.03;;
72085;SDS011;64750;52.134;5.424;2023-04-06T04:48:25;10.27;;;7.30;;
72085;SDS011;64750;52.134;5.424;2023-04-06T04:50:52;9.43;;;7.25;;
72085;SDS011;64750;52.134;5.424;2023-04-06T04:53:18;8.67;;;7.70;;
72085;SDS011;64750;52.134;5.424;2023-04-06T04:55:44;12.35;;;7.35;;
72085;SDS011;64750;52.134;5.424;2023-04-06T04:58:11;9.13;;;7.35;;
72085;SDS011;64750;52.134;5.424;2023-04-06T05:00:41;9.80;;;6.93;;
72085;SDS011;64750;52.134;5.424;2023-04-06T05:03:14;9.52;;;7.32;;
72085;SDS011;64750;52.134;5.424;2023-04-06T05:05:49;9.33;;;7.43;;
72085;SDS011;64750;52.134;5.424;2023-04-06T05:08:16;9.48;;;7.78;;
72085;SDS011;64750;52.134;5.424;2023-04-06T05:10:43;8.73;;;7.55;;
72085;SDS011;64750;52.134;5.424;2023-04-06T05:13:10;10.32;;;7.97;;
72085;SDS011;64750;52.134;5.424;2023-04-06T05:15:37;10.80;;;7.78;;
72085;SDS011;64750;52.134;5.424;2023-04-06T05:18:04;9.67;;;7.80;;
72085;SDS011;64750;52.134;5.424;2023-04-06T05:20:32;9.52;;;8.07;;
72085;SDS011;64750;52.134;5.424;2023-04-06T05:22:58;8.60;;;7.63;;
72085;SDS011;64750;52.134;5.424;2023-04-06T05:25:25;12.15;;;8.80;;
72085;SDS011;64750;52.134;5.424;2023-04-06T05:27:51;9.43;;;8.32;;
72085;SDS011;64750;52.134;5.424;2023-04-06T05:30:18;14.37;;;8.17;;
72085;SDS011;64750;52.134;5.424;2023-04-06T05:32:44;11.10;;;8.25;;
72085;SDS011;64750;52.134;5.424;2023-04-06T05:35:11;12.80;;;8.82;;
72085;SDS011;64750;52.134;5.424;2023-04-06T05:37:38;9.02;;;7.97;;
72085;SDS011;64750;52.134;5.424;2023-04-06T05:40:05;11.10;;;8.10;;
72085;SDS011;64750;52.134;5.424;2023-04-06T05:42:38;14.77;;;8.23;;
72085;SDS011;64750;52.134;5.424;2023-04-06T05:45:05;11.25;;;7.88;;
72085;SDS011;64750;52.134;5.424;2023-04-06T05:47:32;13.85;;;8.50;;
72085;SDS011;64750;52.134;5.424;2023-04-06T05:49:59;10.50;;;8.68;;
72085;SDS011;64750;52.134;5.424;2023-04-06T05:52:26;10.80;;;8.15;;
72085;SDS011;64750;52.134;5.424;2023-04-06T05:54:52;10.20;;;8.53;;
72085;SDS011;64750;52.134;5.424;2023-04-06T05:57:19;12.98;;;8.43;;
72085;SDS011;64750;52.134;5.424;2023-04-06T05:59:45;12.45;;;9.15;;
72085;SDS011;64750;52.134;5.424;2023-04-06T06:02:11;12.88;;;8.82;;
72085;SDS011;64750;52.134;5.424;2023-04-06T06:04:38;12.38;;;8.55;;
72085;SDS011;64750;52.134;5.424;2023-04-06T06:07:04;12.10;;;9.10;;
72085;SDS011;64750;52.134;5.424;2023-04-06T06:09:31;13.13;;;8.80;;
72085;SDS011;64750;52.134;5.424;2023-04-06T06:11:58;17.27;;;9.65;;
72085;SDS011;64750;52.134;5.424;2023-04-06T06:14:25;11.57;;;8.18;;
72085;SDS011;64750;52.134;5.424;2023-04-06T06:16:54;14.23;;;9.45;;
72085;SDS011;64750;52.134;5.424;2023-04-06T06:19:20;14.63;;;9.80;;
72085;SDS011;64750;52.134;5.424;2023-04-06T06:21:47;12.13;;;9.90;;
72085;SDS011;64750;52.134;5.424;2023-04-06T06:24:13;12.93;;;9.20;;
72085;SDS011;64750;52.134;5.424;2023-04-06T06:26:40;14.20;;;10.07;;
72085;SDS011;64750;52.134;5.424;2023-04-06T06:29:06;10.60;;;9.50;;
72085;SDS011;64750;52.134;5.424;2023-04-06T06:31:33;15.77;;;9.67;;
72085;SDS011;64750;52.134;5.424;2023-04-06T06:34:00;12.45;;;9.35;;
72085;SDS011;64750;52.134;5.424;2023-04-06T06:36:26;14.45;;;10.25;;
72085;SDS011;64750;52.134;5.424;2023-04-06T06:38:53;15.55;;;9.38;;
72085;SDS011;64750;52.134;5.424;2023-04-06T06:41:19;17.92;;;10.45;;
72085;SDS011;64750;52.134;5.424;2023-04-06T06:43:46;14.80;;;9.50;;
72085;SDS011;64750;52.134;5.424;2023-04-06T06:46:13;15.55;;;10.32;;
72085;SDS011;64750;52.134;5.424;2023-04-06T06:48:39;15.38;;;9.82;;
72085;SDS011;64750;52.134;5.424;2023-04-06T06:51:06;14.02;;;10.70;;
72085;SDS011;64750;52.134;5.424;2023-04-06T06:53:32;15.35;;;10.20;;
72085;SDS011;64750;52.134;5.424;2023-04-06T06:55:59;14.47;;;9.97;;
72085;SDS011;64750;52.134;5.424;2023-04-06T06:58:25;16.15;;;9.48;;
72085;SDS011;64750;52.134;5.424;2023-04-06T07:00:55;15.45;;;10.43;;
72085;SDS011;64750;52.134;5.424;2023-04-06T07:03:23;13.65;;;10.10;;
72085;SDS011;64750;52.134;5.424;2023-04-06T07:05:49;17.27;;;10.75;;
72085;SDS011;64750;52.134;5.424;2023-04-06T07:08:20;11.70;;;9.53;;
72085;SDS011;64750;52.134;5.424;2023-04-06T07:10:47;14.85;;;10.27;;
72085;SDS011;64750;52.134;5.424;2023-04-06T07:13:14;16.05;;;10.63;;
72085;SDS011;64750;52.134;5.424;2023-04-06T07:15:48;13.90;;;10.52;;
72085;SDS011;64750;52.134;5.424;2023-04-06T07:18:15;19.23;;;10.60;;
72085;SDS011;64750;52.134;5.424;2023-04-06T07:20:42;16.00;;;10.87;;
72085;SDS011;64750;52.134;5.424;2023-04-06T07:23:09;15.45;;;10.27;;
72085;SDS011;64750;52.134;5.424;2023-04-06T07:25:35;17.00;;;10.77;;
72085;SDS011;64750;52.134;5.424;2023-04-06T07:28:02;17.23;;;11.25;;
72085;SDS011;64750;52.134;5.424;2023-04-06T07:30:29;20.83;;;10.50;;
72085;SDS011;64750;52.134;5.424;2023-04-06T07:32:57;17.77;;;11.17;;
72085;SDS011;64750;52.134;5.424;2023-04-06T07:35:26;13.45;;;9.73;;
72085;SDS011;64750;52.134;5.424;2023-04-06T07:37:53;16.30;;;11.27;;
72085;SDS011;64750;52.134;5.424;2023-04-06T07:40:20;14.68;;;11.02;;
72085;SDS011;64750;52.134;5.424;2023-04-06T07:42:46;18.13;;;11.32;;
72085;SDS011;64750;52.134;5.424;2023-04-06T07:45:13;14.53;;;10.97;;
72085;SDS011;64750;52.134;5.424;2023-04-06T07:47:41;16.05;;;10.88;;
72085;SDS011;64750;52.134;5.424;2023-04-06T07:50:08;18.63;;;10.65;;
72085;SDS011;64750;52.134;5.424;2023-04-06T07:52:36;19.42;;;11.32;;
72085;SDS011;64750;52.134;5.424;2023-04-06T07:55:03;17.92;;;11.43;;
72085;SDS011;64750;52.134;5.424;2023-04-06T07:57:30;16.80;;;10.80;;
72085;SDS011;64750;52.134;5.424;2023-04-06T07:59:57;18.00;;;11.82;;
72085;SDS011;64750;52.134;5.424;2023-04-06T08:02:23;19.20;;;12.02;;
72085;SDS011;64750;52.134;5.424;2023-04-06T08:04:50;16.92;;;12.05;;
72085;SDS011;64750;52.134;5.424;2023-04-06T08:07:16;18.58;;;12.13;;
72085;SDS011;64750;52.134;5.424;2023-04-06T08:09:43;16.20;;;11.70;;
72085;SDS011;64750;52.134;5.424;2023-04-06T08:12:09;19.98;;;12.13;;
72085;SDS011;64750;52.134;5.424;2023-04-06T08:14:35;15.50;;;10.95;;
72085;SDS011;64750;52.134;5.424;2023-04-06T08:17:02;17.67;;;11.27;;
72085;SDS011;64750;52.134;5.424;2023-04-06T08:19:31;15.93;;;11.25;;
72085;SDS011;64750;52.134;5.424;2023-04-06T08:21:58;17.63;;;11.00;;
72085;SDS011;64750;52.134;5.424;2023-04-06T08:24:24;21.58;;;12.43;;
72085;SDS011;64750;52.134;5.424;2023-04-06T08:26:50;20.27;;;11.68;;
72085;SDS011;64750;52.134;5.424;2023-04-06T08:29:18;19.73;;;12.05;;
72085;SDS011;64750;52.134;5.424;2023-04-06T08:31:44;16.00;;;11.77;;
72085;SDS011;64750;52.134;5.424;2023-04-06T08:34:11;23.07;;;11.90;;
72085;SDS011;64750;52.134;5.424;2023-04-06T08:36:39;16.17;;;11.23;;
72085;SDS011;64750;52.134;5.424;2023-04-06T08:39:07;17.40;;;12.70;;
72085;SDS011;64750;52.134;5.424;2023-04-06T08:41:33;19.05;;;11.95;;
72085;SDS011;64750;52.134;5.424;2023-04-06T08:44:00;17.10;;;12.38;;
72085;SDS011;64750;52.134;5.424;2023-04-06T08:46:28;19.60;;;12.13;;
72085;SDS011;64750;52.134;5.424;2023-04-06T08:48:56;16.95;;;12.50;;
72085;SDS011;64750;52.134;5.424;2023-04-06T08:51:24;15.85;;;12.52;;
72085;SDS011;64750;52.134;5.424;2023-04-06T08:53:54;21.08;;;13.30;;
72085;SDS011;64750;52.134;5.424;2023-04-06T08:56:22;17.30;;;12.77;;
72085;SDS011;64750;52.134;5.424;2023-04-06T08:58:50;15.90;;;12.63;;
72085;SDS011;64750;52.134;5.424;2023-04-06T09:01:22;21.38;;;13.30;;
72085;SDS011;64750;52.134;5.424;2023-04-06T09:03:54;17.70;;;12.75;;
72085;SDS011;64750;52.134;5.424;2023-04-06T09:06:24;21.30;;;12.80;;
72085;SDS011;64750;52.134;5.424;2023-04-06T09:08:52;18.15;;;12.45;;
72085;SDS011;64750;52.134;5.424;2023-04-06T09:11:19;21.07;;;12.60;;
72085;SDS011;64750;52.134;5.424;2023-04-06T09:16:20;20.60;;;12.95;;
72085;SDS011;64750;52.134;5.424;2023-04-06T09:18:47;20.73;;;12.63;;
72085;SDS011;64750;52.134;5.424;2023-04-06T09:21:16;22.52;;;13.48;;
72085;SDS011;64750;52.134;5.424;2023-04-06T09:23:44;17.57;;;13.70;;
72085;SDS011;64750;52.134;5.424;2023-04-06T09:26:12;26.38;;;13.18;;
72085;SDS011;64750;52.134;5.424;2023-04-06T09:28:43;25.52;;;14.27;;
72085;SDS011;64750;52.134;5.424;2023-04-06T09:31:24;18.20;;;12.85;;
72085;SDS011;64750;52.134;5.424;2023-04-06T09:33:52;26.83;;;13.20;;
72085;SDS011;64750;52.134;5.424;2023-04-06T09:36:19;19.73;;;12.67;;
72085;SDS011;64750;52.134;5.424;2023-04-06T09:38:53;22.30;;;13.05;;
72085;SDS011;64750;52.134;5.424;2023-04-06T09:41:24;21.67;;;13.60;;
72085;SDS011;64750;52.134;5.424;2023-04-06T09:43:52;16.23;;;12.57;;
72085;SDS011;64750;52.134;5.424;2023-04-06T09:46:28;19.63;;;13.23;;
72085;SDS011;64750;52.134;5.424;2023-04-06T09:49:16;21.93;;;13.47;;
72085;SDS011;64750;52.134;5.424;2023-04-06T09:51:45;20.52;;;12.70;;
72085;SDS011;64750;52.134;5.424;2023-04-06T09:54:18;25.35;;;13.85;;
72085;SDS011;64750;52.134;5.424;2023-04-06T09:56:47;24.45;;;14.00;;
72085;SDS011;64750;52.134;5.424;2023-04-06T09:59:18;21.52;;;12.60;;
72085;SDS011;64750;52.134;5.424;2023-04-06T10:01:51;23.43;;;13.80;;
72085;SDS011;64750;52.134;5.424;2023-04-06T10:04:31;23.50;;;14.45;;
72085;SDS011;64750;52.134;5.424;2023-04-06T10:07:04;27.33;;;15.80;;
72085;SDS011;64750;52.134;5.424;2023-04-06T10:09:32;23.05;;;13.98;;
72085;SDS011;64750;52.134;5.424;2023-04-06T10:12:06;23.20;;;14.55;;
72085;SDS011;64750;52.134;5.424;2023-04-06T10:14:33;20.10;;;13.57;;
72085;SDS011;64750;52.134;5.424;2023-04-06T10:17:03;24.25;;;13.55;;
72085;SDS011;64750;52.134;5.424;2023-04-06T10:19:34;25.00;;;13.52;;
72085;SDS011;64750;52.134;5.424;2023-04-06T10:22:21;20.33;;;11.32;;
72085;SDS011;64750;52.134;5.424;2023-04-06T10:24:52;20.80;;;12.05;;
72085;SDS011;64750;52.134;5.424;2023-04-06T10:27:27;20.20;;;11.67;;
72085;SDS011;64750;52.134;5.424;2023-04-06T10:29:59;18.42;;;11.77;;
72085;SDS011;64750;52.134;5.424;2023-04-06T10:32:34;17.35;;;11.27;;
72085;SDS011;64750;52.134;5.424;2023-04-06T10:35:05;13.25;;;10.05;;
72085;SDS011;64750;52.134;5.424;2023-04-06T10:37:45;13.07;;;9.23;;
72085;SDS011;64750;52.134;5.424;2023-04-06T10:40:25;14.13;;;8.63;;
72085;SDS011;64750;52.134;5.424;2023-04-06T10:42:55;11.20;;;8.10;;
72085;SDS011;64750;52.134;5.424;2023-04-06T10:45:32;13.43;;;8.75;;
72085;SDS011;64750;52.134;5.424;2023-04-06T10:47:59;13.18;;;8.05;;
72085;SDS011;64750;52.134;5.424;2023-04-06T10:50:26;7.15;;;6.25;;
72085;SDS011;64750;52.134;5.424;2023-04-06T10:52:59;7.53;;;5.60;;
72085;SDS011;64750;52.134;5.424;2023-04-06T10:55:27;6.00;;;5.50;;
72085;SDS011;64750;52.134;5.424;2023-04-06T10:57:54;6.38;;;5.78;;
72085;SDS011;64750;52.134;5.424;2023-04-06T11:00:21;5.45;;;4.82;;
72085;SDS011;64750;52.134;5.424;2023-04-06T11:02:47;7.57;;;6.13;;
72085;SDS011;64750;52.134;5.424;2023-04-06T11:05:14;8.10;;;5.07;;
72085;SDS011;64750;52.134;5.424;2023-04-06T11:07:41;5.18;;;4.57;;
72085;SDS011;64750;52.134;5.424;2023-04-06T11:10:08;5.53;;;5.03;;
72085;SDS011;64750;52.134;5.424;2023-04-06T11:12:37;5.97;;;5.45;;
72085;SDS011;64750;52.134;5.424;2023-04-06T11:15:04;4.22;;;3.92;;
72085;SDS011;64750;52.134;5.424;2023-04-06T11:17:33;4.90;;;4.13;;
72085;SDS011;64750;52.134;5.424;2023-04-06T11:20:02;9.63;;;4.70;;
72085;SDS011;64750;52.134;5.424;2023-04-06T11:22:30;5.18;;;4.32;;
72085;SDS011;64750;52.134;5.424;2023-04-06T11:25:06;4.40;;;4.00;;
72085;SDS011;64750;52.134;5.424;2023-04-06T11:27:38;4.72;;;4.30;;
72085;SDS011;64750;52.134;5.424;2023-04-06T11:30:05;4.27;;;3.87;;
72085;SDS011;64750;52.134;5.424;2023-04-06T11:32:44;5.13;;;4.07;;
72085;SDS011;64750;52.134;5.424;2023-04-06T11:35:18;7.07;;;4.65;;
72085;SDS011;64750;52.134;5.424;2023-04-06T11:37:49;5.05;;;4.55;;
72085;SDS011;64750;52.134;5.424;2023-04-06T11:40:23;4.50;;;4.10;;
72085;SDS011;64750;52.134;5.424;2023-04-06T11:42:54;4.73;;;4.20;;
72085;SDS011;64750;52.134;5.424;2023-04-06T11:45:21;4.80;;;4.30;;
72085;SDS011;64750;52.134;5.424;2023-04-06T11:47:55;5.15;;;4.28;;
72085;SDS011;64750;52.134;5.424;2023-04-06T11:50:31;4.20;;;3.80;;
72085;SDS011;64750;52.134;5.424;2023-04-06T11:52:59;6.05;;;4.05;;
72085;SDS011;64750;52.134;5.424;2023-04-06T11:55:27;4.87;;;4.37;;
72085;SDS011;64750;52.134;5.424;2023-04-06T11:57:54;3.88;;;3.58;;
72085;SDS011;64750;52.134;5.424;2023-04-06T12:00:22;5.35;;;4.10;;
72085;SDS011;64750;52.134;5.424;2023-04-06T12:02:48;3.92;;;3.63;;
72085;SDS011;64750;52.134;5.424;2023-04-06T12:05:15;5.78;;;4.85;;
72085;SDS011;64750;52.134;5.424;2023-04-06T12:07:42;6.70;;;3.97;;
72085;SDS011;64750;52.134;5.424;2023-04-06T12:10:09;4.80;;;4.30;;
72085;SDS011;64750;52.134;5.424;2023-04-06T12:12:35;5.45;;;4.97;;
72085;SDS011;64750;52.134;5.424;2023-04-06T12:15:02;8.90;;;4.85;;
72085;SDS011;64750;52.134;5.424;2023-04-06T12:17:29;6.50;;;5.15;;
72085;SDS011;64750;52.134;5.424;2023-04-06T12:19:55;5.67;;;4.80;;
72085;SDS011;64750;52.134;5.424;2023-04-06T12:22:30;6.35;;;4.95;;
72085;SDS011;64750;52.134;5.424;2023-04-06T12:24:56;4.88;;;4.47;;
72085;SDS011;64750;52.134;5.424;2023-04-06T12:27:22;5.88;;;5.07;;
72085;SDS011;64750;52.134;5.424;2023-04-06T12:29:49;5.35;;;4.65;;
72085;SDS011;64750;52.134;5.424;2023-04-06T12:32:15;5.50;;;5.00;;
72085;SDS011;64750;52.134;5.424;2023-04-06T12:34:42;5.90;;;5.35;;
72085;SDS011;64750;52.134;5.424;2023-04-06T12:37:08;5.90;;;5.30;;
72085;SDS011;64750;52.134;5.424;2023-04-06T12:39:35;5.80;;;5.30;;
72085;SDS011;64750;52.134;5.424;2023-04-06T12:42:01;8.05;;;5.50;;
72085;SDS011;64750;52.134;5.424;2023-04-06T12:44:28;7.20;;;5.43;;
72085;SDS011;64750;52.134;5.424;2023-04-06T12:46:55;5.95;;;5.45;;
72085;SDS011;64750;52.134;5.424;2023-04-06T12:49:22;7.53;;;5.57;;
72085;SDS011;64750;52.134;5.424;2023-04-06T12:51:48;8.95;;;5.15;;
72085;SDS011;64750;52.134;5.424;2023-04-06T12:54:16;5.85;;;5.13;;
72085;SDS011;64750;52.134;5.424;2023-04-06T12:56:42;5.67;;;4.90;;
72085;SDS011;64750;52.134;5.424;2023-04-06T12:59:09;5.72;;;5.10;;
72085;SDS011;64750;52.134;5.424;2023-04-06T13:01:35;7.18;;;6.43;;
72085;SDS011;64750;52.134;5.424;2023-04-06T13:04:02;7.15;;;6.00;;
72085;SDS011;64750;52.134;5.424;2023-04-06T13:06:29;6.60;;;5.85;;
72085;SDS011;64750;52.134;5.424;2023-04-06T13:08:56;6.33;;;5.73;;
72085;SDS011;64750;52.134;5.424;2023-04-06T13:11:22;6.65;;;5.93;;
72085;SDS011;64750;52.134;5.424;2023-04-06T13:13:53;6.07;;;5.47;;
72085;SDS011;64750;52.134;5.424;2023-04-06T13:16:20;8.57;;;5.53;;
72085;SDS011;64750;52.134;5.424;2023-04-06T13:18:46;6.80;;;5.78;;
72085;SDS011;64750;52.134;5.424;2023-04-06T13:21:13;6.63;;;5.97;;
72085;SDS011;64750;52.134;5.424;2023-04-06T13:23:42;6.85;;;5.90;;
72085;SDS011;64750;52.134;5.424;2023-04-06T13:26:09;6.05;;;5.38;;
72085;SDS011;64750;52.134;5.424;2023-04-06T13:28:36;8.15;;;5.40;;
72085;SDS011;64750;52.134;5.424;2023-04-06T13:31:04;6.05;;;5.35;;
72085;SDS011;64750;52.134;5.424;2023-04-06T13:33:31;6.97;;;6.27;;
72085;SDS011;64750;52.134;5.424;2023-04-06T13:35:57;6.53;;;5.93;;
72085;SDS011;64750;52.134;5.424;2023-04-06T13:38:24;6.43;;;5.90;;
72085;SDS011;64750;52.134;5.424;2023-04-06T13:40:51;6.35;;;5.55;;
72085;SDS011;64750;52.134;5.424;2023-04-06T13:43:17;7.05;;;6.00;;
72085;SDS011;64750;52.134;5.424;2023-04-06T13:45:49;9.03;;;5.90;;
72085;SDS011;64750;52.134;5.424;2023-04-06T13:48:21;6.60;;;5.70;;
72085;SDS011;64750;52.134;5.424;2023-04-06T13:50:47;6.25;;;5.68;;
72085;SDS011;64750;52.134;5.424;2023-04-06T13:53:14;5.93;;;5.38;;
72085;SDS011;64750;52.134;5.424;2023-04-06T13:55:40;7.20;;;6.35;;
72085;SDS011;64750;52.134;5.424;2023-04-06T13:58:07;7.23;;;5.77;;
72085;SDS011;64750;52.134;5.424;2023-04-06T14:00:33;6.60;;;5.88;;
72085;SDS011;64750;52.134;5.424;2023-04-06T14:03:00;5.97;;;5.40;;
72085;SDS011;64750;52.134;5.424;2023-04-06T14:05:30;7.05;;;5.78;;
72085;SDS011;64750;52.134;5.424;2023-04-06T14:08:00;5.85;;;5.28;;
72085;SDS011;64750;52.134;5.424;2023-04-06T14:10:27;6.57;;;5.53;;
72085;SDS011;64750;52.134;5.424;2023-04-06T14:12:54;7.43;;;5.35;;
72085;SDS011;64750;52.134;5.424;2023-04-06T14:15:21;6.15;;;5.55;;
72085;SDS011;64750;52.134;5.424;2023-04-06T14:17:48;6.43;;;5.22;;
72085;SDS011;64750;52.134;5.424;2023-04-06T14:20:15;6.53;;;5.82;;
72085;SDS011;64750;52.134;5.424;2023-04-06T14:22:42;6.40;;;5.80;;
72085;SDS011;64750;52.134;5.424;2023-04-06T14:25:09;7.38;;;5.28;;
72085;SDS011;64750;52.134;5.424;2023-04-06T14:27:37;6.50;;;5.35;;
72085;SDS011;64750;52.134;5.424;2023-04-06T14:30:04;7.80;;;5.40;;
72085;SDS011;64750;52.134;5.424;2023-04-06T14:32:31;9.40;;;6.35;;
72085;SDS011;64750;52.134;5.424;2023-04-06T14:34:58;6.03;;;5.53;;
72085;SDS011;64750;52.134;5.424;2023-04-06T14:37:24;11.10;;;6.03;;
72085;SDS011;64750;52.134;5.424;2023-04-06T14:39:51;8.27;;;6.10;;
72085;SDS011;64750;52.134;5.424;2023-04-06T14:42:17;6.60;;;5.63;;
72085;SDS011;64750;52.134;5.424;2023-04-06T14:44:44;6.43;;;5.93;;
72085;SDS011;64750;52.134;5.424;2023-04-06T14:47:11;6.10;;;5.50;;